createdAt,value
2019-03-08T08:37:26.481Z,26.306152
2019-03-08T08:37:38.490Z,26.316223
2019-03-08T08:37:52.888Z,26.306152
2019-03-08T08:38:05.794Z,26.336365
2019-03-08T08:38:18.071Z,26.044312
2019-03-08T08:38:48.228Z,25.389709
2019-03-08T08:39:02.012Z,25.762329
2019-03-08T08:39:14.140Z,25.973816
2019-03-08T08:39:26.348Z,26.004028
2019-03-08T08:39:38.743Z,25.782471
2019-03-08T08:39:51.673Z,25.440063
2019-03-08T08:42:36.273Z,21.11969
2019-03-08T08:42:48.175Z,21.270752
2019-03-08T08:43:00.100Z,21.462097
2019-03-08T08:43:12.144Z,21.693726
2019-03-08T08:43:24.103Z,21.834717
2019-03-08T08:43:36.114Z,21.905212
2019-03-08T08:43:48.212Z,21.99585
2019-03-08T08:44:00.106Z,22.207336
2019-03-08T08:44:11.962Z,22.348328
2019-03-08T08:44:24.112Z,22.489319
2019-03-08T08:44:37.904Z,22.620239
2019-03-08T08:44:49.927Z,22.680664
2019-03-08T08:45:01.800Z,22.76123
2019-03-08T08:45:13.804Z,22.700806
2019-03-08T08:45:25.982Z,22.579956
2019-03-08T08:45:35.176Z,22.821655
2019-03-08T08:45:37.990Z,22.418823
2019-03-08T08:45:47.318Z,22.76123
2019-03-08T08:45:49.852Z,22.24762
2019-03-08T08:46:00.653Z,22.690735
2019-03-08T08:46:01.810Z,22.086487
2019-03-08T08:46:12.692Z,22.569885
2019-03-08T08:46:13.827Z,21.935425
2019-03-08T08:46:24.694Z,22.449036
2019-03-08T08:46:25.724Z,21.794434
2019-03-08T08:46:36.691Z,22.348328
2019-03-08T08:46:37.600Z,21.643372
2019-03-08T08:46:48.737Z,22.287903
2019-03-08T08:47:00.902Z,22.207336
2019-03-08T08:47:13.001Z,22.146912
2019-03-08T08:47:24.943Z,22.116699
2019-03-08T08:47:37.099Z,22.056274
2019-03-08T08:47:49.338Z,22.046204
2019-03-08T08:48:02.030Z,22.00592
2019-03-08T08:48:15.038Z,21.975708
2019-03-08T08:48:26.270Z,21.955566
2019-03-08T08:48:38.822Z,21.975708
2019-03-08T08:48:50.955Z,21.985779
2019-03-08T08:49:02.976Z,21.985779
2019-03-08T08:49:15.022Z,21.975708
2019-03-08T08:49:28.563Z,21.935425
2019-03-08T08:49:40.576Z,21.935425
2019-03-08T08:49:53.955Z,23.647461
2019-03-08T08:49:54.721Z,21.935425
2019-03-08T08:49:57.540Z,23.687744
2019-03-08T08:50:05.451Z,21.935425
2019-03-08T08:50:09.340Z,23.838806
2019-03-08T08:50:17.438Z,21.935425
2019-03-08T08:50:22.528Z,23.909302
2019-03-08T08:50:29.422Z,21.935425
2019-03-08T08:50:35.660Z,23.808594
2019-03-08T08:50:41.472Z,21.905212
2019-03-08T08:50:46.514Z,23.75824
2019-03-08T08:50:53.472Z,21.925354
2019-03-08T08:50:58.315Z,23.707886
2019-03-08T08:51:05.538Z,21.895142
2019-03-08T08:51:10.148Z,23.607178
2019-03-08T08:51:17.592Z,21.895142
2019-03-08T08:51:21.981Z,23.496399
2019-03-08T08:51:29.601Z,21.905212
2019-03-08T08:51:33.979Z,23.395691
2019-03-08T08:51:42.476Z,21.895142
2019-03-08T08:51:45.875Z,23.284912
2019-03-08T08:51:54.450Z,21.885071
2019-03-08T08:51:57.782Z,23.174133
2019-03-08T08:52:06.434Z,21.854858
2019-03-08T08:52:09.684Z,23.063354
2019-03-08T08:52:18.363Z,21.824646
2019-03-08T08:52:21.533Z,22.982788
2019-03-08T08:52:30.331Z,21.824646
2019-03-08T08:52:33.551Z,22.872009
2019-03-08T08:52:42.347Z,21.834717
2019-03-08T08:52:45.398Z,22.811584
2019-03-08T08:52:54.351Z,21.824646
2019-03-08T08:53:06.344Z,21.824646
2019-03-08T08:53:18.330Z,21.824646
2019-03-08T08:53:31.057Z,21.814575
2019-03-08T08:53:44.533Z,21.794434
2019-03-08T08:53:57.811Z,21.794434
2019-03-08T08:54:09.842Z,21.814575
2019-03-08T08:54:22.059Z,21.774292
2019-03-08T08:54:34.091Z,21.75415
2019-03-08T08:54:46.067Z,21.794434
2019-03-08T08:55:00.032Z,21.794434
2019-03-08T08:55:13.038Z,21.794434
2019-03-08T08:55:26.655Z,21.794434
2019-03-08T08:55:39.484Z,21.814575
2019-03-08T08:55:51.588Z,21.814575
2019-03-08T08:56:03.727Z,21.794434
2019-03-08T08:56:15.761Z,21.794434
2019-03-08T08:56:27.768Z,21.794434
2019-03-08T08:56:39.740Z,21.794434
2019-03-08T08:56:51.749Z,21.774292
2019-03-08T08:57:03.767Z,21.794434
2019-03-08T08:57:15.759Z,21.774292
2019-03-08T08:57:28.670Z,21.774292
2019-03-08T08:57:40.736Z,21.774292
2019-03-08T08:57:53.560Z,21.75415
2019-03-08T08:58:05.691Z,21.794434
2019-03-08T08:58:18.456Z,21.814575
2019-03-08T08:58:30.533Z,21.794434
2019-03-08T08:58:42.446Z,21.824646
2019-03-08T08:58:54.490Z,21.854858
2019-03-08T08:59:06.451Z,21.834717
2019-03-08T08:59:18.448Z,21.834717
2019-03-08T08:59:31.391Z,21.834717
2019-03-08T08:59:44.144Z,21.834717
2019-03-08T08:59:57.028Z,21.854858
2019-03-08T09:00:08.204Z,21.864929
2019-03-08T09:00:20.249Z,21.864929
2019-03-08T09:00:32.337Z,21.864929
2019-03-08T09:00:44.323Z,21.864929
2019-03-08T09:00:57.181Z,21.864929
2019-03-08T09:01:09.181Z,21.864929
2019-03-08T09:01:21.182Z,21.864929
2019-03-08T09:01:34.588Z,21.864929
2019-03-08T09:01:47.541Z,21.864929
2019-03-08T09:01:59.517Z,21.864929
2019-03-08T09:02:11.525Z,21.864929
2019-03-08T09:02:24.542Z,21.834717
2019-03-08T09:02:34.811Z,21.834717
2019-03-08T09:02:47.696Z,21.834717
2019-03-08T09:03:00.554Z,21.834717
2019-03-08T09:03:11.839Z,21.834717
2019-03-08T09:03:23.784Z,21.814575
2019-03-08T09:03:35.851Z,21.814575
2019-03-08T09:03:47.793Z,21.824646
2019-03-08T09:04:00.936Z,21.814575
2019-03-08T09:04:12.894Z,21.794434
2019-03-08T09:04:24.896Z,21.774292
2019-03-08T09:04:36.975Z,21.774292
2019-03-08T09:04:49.659Z,21.75415
2019-03-08T09:05:02.736Z,21.774292
2019-03-08T09:05:14.688Z,21.74408
2019-03-08T09:05:26.644Z,21.74408
2019-03-08T09:05:38.621Z,21.734009
2019-03-08T09:05:49.745Z,21.703796
2019-03-08T09:06:02.283Z,21.713867
2019-03-08T09:06:12.350Z,21.713867
2019-03-08T09:06:31.403Z,21.713867
2019-03-08T09:06:44.251Z,21.713867
2019-03-08T09:06:56.810Z,21.734009
2019-03-08T09:07:09.575Z,21.734009
2019-03-08T09:07:21.573Z,21.74408
2019-03-08T09:07:34.432Z,21.75415
2019-03-08T09:07:46.474Z,21.75415
2019-03-08T09:07:59.087Z,21.774292
2019-03-08T09:08:11.090Z,21.794434
2019-03-08T09:08:23.758Z,21.814575
2019-03-08T09:08:36.291Z,21.824646
2019-03-08T09:08:48.302Z,21.824646
2019-03-08T09:09:00.332Z,21.864929
2019-03-08T09:09:12.416Z,21.885071
2019-03-08T09:09:25.493Z,21.895142
